Time;durP1;ratioP1;P1;durP2;ratioP2;P2;SDS_P1;SDS_P2;PMS_P1;PMS_P2;Temp;Humidity;BMP_temperature;BMP_pressure;BME280_temperature;BME280_humidity;BME280_pressure;Samples;Min_cycle;Max_cycle;Signal;HPM_P1;HPM_P2
2022/03/02 00:01:42;;;;;;;11.05;8.57;;;4.40;55.00;;;;;;5045996;28;20225;-61
2022/03/02 00:04:09;;;;;;;12.25;9.10;;;4.40;55.30;;;;;;5041139;28;20194;-61
2022/03/02 00:06:36;;;;;;;13.68;9.10;;;4.40;55.50;;;;;;5038110;28;20689;-61
2022/03/02 00:09:04;;;;;;;14.40;9.38;;;4.40;55.70;;;;;;5037959;28;20209;-62
2022/03/02 00:11:31;;;;;;;11.43;8.60;;;4.30;55.70;;;;;;5036351;28;20226;-61
2022/03/02 00:14:00;;;;;;;14.88;9.95;;;4.30;55.90;;;;;;5033720;28;20259;-62
2022/03/02 00:16:29;;;;;;;14.65;9.55;;;4.30;55.90;;;;;;5033666;28;20248;-61
2022/03/02 00:18:56;;;;;;;11.68;8.32;;;4.30;56.00;;;;;;5034095;28;20229;-61
2022/03/02 00:21:24;;;;;;;12.63;8.75;;;4.30;56.10;;;;;;5033842;28;20234;-61
2022/03/02 00:23:51;;;;;;;9.18;8.18;;;4.30;56.00;;;;;;5033826;28;20190;-61
2022/03/02 00:26:19;;;;;;;11.70;9.48;;;4.30;56.00;;;;;;5038106;28;20198;-62
2022/03/02 00:28:46;;;;;;;9.27;8.38;;;4.30;56.00;;;;;;5038106;28;20575;-61
2022/03/02 00:31:13;;;;;;;13.40;9.50;;;4.20;56.00;;;;;;5042722;28;20736;-62
2022/03/02 00:33:42;;;;;;;10.57;9.02;;;4.20;56.20;;;;;;5046450;28;20644;-62
2022/03/02 00:36:09;;;;;;;13.40;7.90;;;4.20;56.20;;;;;;5048327;28;20214;-62
2022/03/02 00:38:36;;;;;;;12.45;9.95;;;4.20;56.20;;;;;;5048316;28;20562;-62
2022/03/02 00:41:04;;;;;;;13.63;8.50;;;4.20;56.30;;;;;;5048230;28;20206;-61
2022/03/02 00:43:31;;;;;;;12.05;9.55;;;4.20;56.30;;;;;;5037358;28;20208;-62
2022/03/02 00:45:58;;;;;;;11.65;9.45;;;4.20;56.20;;;;;;5037322;28;20209;-61
2022/03/02 00:48:25;;;;;;;12.65;8.57;;;4.20;56.30;;;;;;5038694;28;20225;-61
2022/03/02 00:50:55;;;;;;;12.45;9.25;;;4.20;56.40;;;;;;5044566;28;20217;-61
2022/03/02 00:53:22;;;;;;;11.65;9.15;;;4.20;56.60;;;;;;5040277;28;20686;-62
2022/03/02 00:55:49;;;;;;;11.50;8.75;;;4.20;56.70;;;;;;5038318;28;20232;-61
2022/03/02 00:58:16;;;;;;;10.50;8.65;;;4.20;56.80;;;;;;5037245;28;20232;-62
2022/03/02 01:00:44;;;;;;;8.77;7.78;;;4.20;56.80;;;;;;5036925;28;20202;-62
2022/03/02 01:03:11;;;;;;;10.80;8.70;;;4.20;56.90;;;;;;5036703;28;20230;-61
2022/03/02 01:05:39;;;;;;;11.10;9.35;;;4.10;57.00;;;;;;5037185;28;20556;-61
2022/03/02 01:08:08;;;;;;;11.20;9.05;;;4.10;57.10;;;;;;5036840;28;20268;-62
2022/03/02 01:10:35;;;;;;;13.30;9.32;;;4.10;57.10;;;;;;5037523;28;20203;-62
2022/03/02 01:13:02;;;;;;;15.43;9.45;;;4.10;57.20;;;;;;5036549;28;20223;-61
2022/03/02 01:15:29;;;;;;;10.70;8.80;;;4.10;57.30;;;;;;5036138;28;20276;-61
2022/03/02 01:17:56;;;;;;;17.15;9.25;;;4.10;57.40;;;;;;5036134;28;20293;-62
2022/03/02 01:20:24;;;;;;;13.93;9.75;;;4.10;57.60;;;;;;5036278;28;20233;-62
2022/03/02 01:22:51;;;;;;;14.48;10.40;;;4.10;57.70;;;;;;5035828;28;20226;-61
2022/03/02 01:25:19;;;;;;;11.88;9.23;;;4.10;57.90;;;;;;5036028;28;20198;-62
2022/03/02 01:27:46;;;;;;;14.13;9.75;;;4.10;57.90;;;;;;5036170;28;20202;-61
2022/03/02 01:30:13;;;;;;;12.80;9.40;;;4.10;57.90;;;;;;5036306;28;20205;-62
2022/03/02 01:32:40;;;;;;;21.58;9.27;;;4.10;58.00;;;;;;5035802;28;20729;-61
2022/03/02 01:35:11;;;;;;;14.13;9.68;;;4.10;58.10;;;;;;5035866;28;20230;-62
2022/03/02 01:37:38;;;;;;;14.85;9.38;;;4.10;58.10;;;;;;5035548;28;20186;-61
2022/03/02 01:40:09;;;;;;;12.65;9.93;;;4.00;58.20;;;;;;5035912;28;20213;-61
2022/03/02 01:42:38;;;;;;;13.52;9.73;;;4.00;58.50;;;;;;5036029;28;20218;-62
2022/03/02 01:45:07;;;;;;;12.80;9.70;;;4.00;58.80;;;;;;5035756;28;20201;-62
2022/03/02 01:47:34;;;;;;;18.38;10.07;;;3.90;59.10;;;;;;5035697;28;20202;-61
2022/03/02 01:50:02;;;;;;;13.02;10.35;;;3.90;59.60;;;;;;5035570;28;20206;-61
2022/03/02 01:52:30;;;;;;;17.63;11.13;;;3.90;60.20;;;;;;5035818;28;20222;-61
2022/03/02 01:54:57;;;;;;;16.30;10.85;;;3.80;60.60;;;;;;5035398;28;20716;-61
2022/03/02 01:57:24;;;;;;;13.73;10.13;;;3.80;61.20;;;;;;5035652;28;20211;-61
2022/03/02 01:59:53;;;;;;;17.73;10.70;;;3.80;61.90;;;;;;5035272;28;20213;-60
2022/03/02 02:02:20;;;;;;;15.40;10.90;;;3.70;62.40;;;;;;5048964;28;20229;-61
2022/03/02 02:04:47;;;;;;;12.40;10.25;;;3.80;63.00;;;;;;5052657;28;20199;-62
2022/03/02 02:07:14;;;;;;;12.73;10.02;;;3.80;63.30;;;;;;5043964;28;20206;-61
2022/03/02 02:09:41;;;;;;;14.45;11.52;;;3.80;63.70;;;;;;5039353;28;20206;-61
2022/03/02 02:12:09;;;;;;;14.15;11.00;;;3.80;64.10;;;;;;5037299;28;20222;-61
2022/03/02 02:14:36;;;;;;;15.20;10.30;;;3.80;64.50;;;;;;5036828;28;20225;-62
2022/03/02 02:17:04;;;;;;;15.10;10.82;;;3.80;64.80;;;;;;5035065;28;20210;-61
2022/03/02 02:19:31;;;;;;;12.73;10.57;;;3.80;65.20;;;;;;5036050;28;20202;-61
2022/03/02 02:22:00;;;;;;;16.83;11.00;;;3.80;65.50;;;;;;5035094;28;20229;-61
2022/03/02 02:24:27;;;;;;;15.68;10.63;;;3.70;65.60;;;;;;5034921;28;20194;-61
2022/03/02 02:26:55;;;;;;;15.60;10.45;;;3.80;66.10;;;;;;5034862;28;20198;-62
2022/03/02 02:29:24;;;;;;;14.57;11.13;;;3.80;67.20;;;;;;5036880;28;20214;-62
2022/03/02 02:31:52;;;;;;;15.60;10.63;;;3.70;66.70;;;;;;5038133;28;20222;-62
2022/03/02 02:34:19;;;;;;;17.73;11.45;;;3.70;67.20;;;;;;5036612;28;20209;-62
2022/03/02 02:36:47;;;;;;;17.05;11.13;;;3.70;67.70;;;;;;5034785;28;20202;-62
2022/03/02 02:39:16;;;;;;;16.17;12.00;;;3.70;68.00;;;;;;5034802;28;20208;-62
2022/03/02 02:41:43;;;;;;;13.02;9.85;;;3.70;68.20;;;;;;5034592;28;20623;-61
2022/03/02 02:44:10;;;;;;;18.23;11.35;;;3.70;68.40;;;;;;5035033;28;20206;-62
2022/03/02 02:46:41;;;;;;;15.90;10.40;;;3.60;68.80;;;;;;5035009;28;20199;-62
2022/03/02 02:49:09;;;;;;;15.93;10.63;;;3.60;69.40;;;;;;5034181;28;20202;-62
2022/03/02 02:51:36;;;;;;;15.63;12.13;;;3.60;69.70;;;;;;5035021;28;20764;-61
2022/03/02 02:54:03;;;;;;;14.05;11.13;;;3.60;70.00;;;;;;5034943;28;20217;-60
2022/03/02 02:56:32;;;;;;;14.07;12.02;;;3.60;70.30;;;;;;5034549;28;20706;-62
2022/03/02 02:58:59;;;;;;;13.40;10.45;;;3.60;70.60;;;;;;5035076;28;20213;-62
2022/03/02 03:01:26;;;;;;;13.23;10.63;;;3.50;70.90;;;;;;5034769;28;20229;-62
2022/03/02 03:03:53;;;;;;;14.48;10.40;;;3.50;71.30;;;;;;5034965;28;20205;-61
2022/03/02 03:06:20;;;;;;;15.52;10.75;;;3.50;71.70;;;;;;5034559;28;20202;-61
2022/03/02 03:08:47;;;;;;;14.43;10.98;;;3.50;72.00;;;;;;5034636;28;20549;-62
2022/03/02 03:11:14;;;;;;;16.38;11.93;;;3.50;72.30;;;;;;5034412;28;20226;-62
2022/03/02 03:13:43;;;;;;;14.63;10.45;;;3.40;72.40;;;;;;5034698;28;20222;-62
2022/03/02 03:16:10;;;;;;;12.73;11.05;;;3.40;72.50;;;;;;5040101;28;20218;-62
2022/03/02 03:18:37;;;;;;;15.95;10.85;;;3.40;72.40;;;;;;5034309;28;20209;-61
2022/03/02 03:21:04;;;;;;;13.15;10.68;;;3.40;72.50;;;;;;5033994;28;20206;-63
2022/03/02 03:23:31;;;;;;;13.73;10.82;;;3.40;72.60;;;;;;5034077;28;20191;-62
2022/03/02 03:25:58;;;;;;;15.25;11.65;;;3.40;72.50;;;;;;5033998;28;20206;-62
2022/03/02 03:28:25;;;;;;;13.38;10.50;;;3.40;72.50;;;;;;5033512;28;20202;-61
2022/03/02 03:30:54;;;;;;;13.93;11.13;;;3.30;72.50;;;;;;5033969;28;20689;-62
2022/03/02 03:33:21;;;;;;;14.95;11.38;;;3.30;72.70;;;;;;5033633;28;20198;-61
2022/03/02 03:35:48;;;;;;;13.57;10.77;;;3.30;73.30;;;;;;5034440;28;20226;-61
2022/03/02 03:38:15;;;;;;;16.10;10.95;;;3.30;72.60;;;;;;5034943;28;20213;-61
2022/03/02 03:40:42;;;;;;;15.38;10.90;;;3.30;72.50;;;;;;5035157;28;20615;-61
2022/03/02 03:43:09;;;;;;;13.75;10.98;;;3.30;72.80;;;;;;5035067;28;20218;-62
2022/03/02 03:45:36;;;;;;;13.93;10.65;;;3.30;73.00;;;;;;5039646;28;20202;-61
2022/03/02 03:48:05;;;;;;;17.45;11.80;;;3.30;73.20;;;;;;5041483;28;20293;-62
2022/03/02 03:50:33;;;;;;;15.73;10.80;;;3.30;73.20;;;;;;5039360;28;20659;-61
2022/03/02 03:53:00;;;;;;;13.05;10.35;;;3.30;73.50;;;;;;5038277;28;20230;-61
2022/03/02 03:55:27;;;;;;;17.65;11.25;;;3.30;73.30;;;;;;5036232;28;20222;-61
2022/03/02 03:57:54;;;;;;;13.88;10.50;;;3.30;73.20;;;;;;5039476;28;20210;-61
2022/03/02 04:00:22;;;;;;;15.43;11.82;;;3.30;73.30;;;;;;5036598;28;20202;-61
2022/03/02 04:02:49;;;;;;;14.57;11.10;;;3.30;73.40;;;;;;5036657;28;20238;-60
2022/03/02 04:05:18;;;;;;;15.25;10.85;;;3.30;73.50;;;;;;5035670;28;20245;-61
2022/03/02 04:09:23;;;;;;;14.50;11.07;;;3.20;72.90;;;;;;5115680;27;20544;-61
2022/03/02 04:11:50;;;;;;;14.73;11.15;;;3.20;73.00;;;;;;5115821;28;20711;-61
2022/03/02 04:14:17;;;;;;;13.98;11.23;;;3.10;72.90;;;;;;5117244;28;20206;-61
2022/03/02 04:16:45;;;;;;;13.80;10.27;;;3.10;73.20;;;;;;5115632;28;20199;-61
2022/03/02 04:19:12;;;;;;;13.70;10.23;;;3.10;73.40;;;;;;5113966;28;20671;-60
2022/03/02 04:21:39;;;;;;;14.15;11.18;;;3.10;73.70;;;;;;5120451;22;20224;-60
2022/03/02 04:24:06;;;;;;;14.20;10.55;;;3.00;73.80;;;;;;5090795;28;20204;-60
2022/03/02 04:26:34;;;;;;;14.52;10.75;;;3.00;74.00;;;;;;5090797;28;20282;-60
2022/03/02 04:29:01;;;;;;;11.32;10.05;;;2.90;74.10;;;;;;5090303;28;20225;-60
2022/03/02 04:31:28;;;;;;;18.10;10.40;;;2.90;74.30;;;;;;5090502;28;20231;-59
2022/03/02 04:33:56;;;;;;;13.50;10.30;;;2.90;74.80;;;;;;5090214;28;20668;-60
2022/03/02 04:36:23;;;;;;;14.63;10.45;;;2.90;75.10;;;;;;5090192;28;20701;-60
2022/03/02 04:38:50;;;;;;;12.07;9.68;;;2.80;75.30;;;;;;5090579;28;20200;-60
2022/03/02 04:41:17;;;;;;;15.75;11.80;;;2.80;75.50;;;;;;5090425;28;20220;-61
2022/03/02 04:43:46;;;;;;;15.50;11.52;;;2.80;75.60;;;;;;5090326;28;20211;-60
2022/03/02 04:46:13;;;;;;;17.73;12.85;;;2.80;76.00;;;;;;5090500;28;20619;-60
2022/03/02 04:48:40;;;;;;;17.60;11.27;;;2.70;76.40;;;;;;5089554;28;20223;-59
2022/03/02 04:51:07;;;;;;;19.65;13.55;;;2.70;77.30;;;;;;5090191;28;20251;-60
2022/03/02 04:53:34;;;;;;;18.40;12.95;;;2.70;78.10;;;;;;5090110;28;20211;-60
2022/03/02 04:56:01;;;;;;;17.15;12.52;;;2.60;78.70;;;;;;5090080;28;20224;-60
2022/03/02 04:58:28;;;;;;;22.90;13.10;;;2.60;79.40;;;;;;5090104;28;20200;-61
2022/03/02 05:00:56;;;;;;;18.13;13.95;;;2.60;80.00;;;;;;5089650;28;20567;-60
2022/03/02 05:03:23;;;;;;;20.27;13.90;;;2.60;80.60;;;;;;5089787;28;20209;-60
2022/03/02 05:05:51;;;;;;;18.17;13.25;;;2.60;80.90;;;;;;5089965;28;20204;-60
2022/03/02 05:08:18;;;;;;;25.17;14.88;;;2.70;81.30;;;;;;5089806;28;20700;-60
2022/03/02 05:10:45;;;;;;;19.27;13.65;;;2.60;81.30;;;;;;5089732;28;20217;-60
2022/03/02 05:13:12;;;;;;;15.48;13.40;;;2.60;81.70;;;;;;5089677;28;20211;-60
2022/03/02 05:15:39;;;;;;;20.52;13.75;;;2.60;82.00;;;;;;5089356;28;20200;-60
2022/03/02 05:18:08;;;;;;;18.42;12.55;;;2.50;82.70;;;;;;5089713;28;20197;-60
2022/03/02 05:20:35;;;;;;;21.23;14.68;;;2.60;83.20;;;;;;5077009;28;20229;-60
2022/03/02 05:23:02;;;;;;;22.58;14.00;;;2.60;83.40;;;;;;5075674;28;20197;-60
2022/03/02 05:25:29;;;;;;;16.58;13.55;;;2.60;83.60;;;;;;5075968;28;20205;-61
2022/03/02 05:27:56;;;;;;;18.20;12.88;;;2.60;83.70;;;;;;5075815;28;20225;-60
2022/03/02 05:30:23;;;;;;;20.35;14.57;;;2.60;83.90;;;;;;5075463;28;20224;-60
2022/03/02 05:32:51;;;;;;;16.83;13.00;;;2.60;84.00;;;;;;5075556;28;20212;-60
2022/03/02 05:35:20;;;;;;;19.92;13.88;;;2.60;84.20;;;;;;5075815;28;20201;-59
2022/03/02 05:37:47;;;;;;;19.17;12.43;;;2.60;84.30;;;;;;5075560;28;20197;-60
2022/03/02 05:40:16;;;;;;;17.35;12.82;;;2.60;84.50;;;;;;5075481;28;20227;-60
2022/03/02 05:42:43;;;;;;;19.30;13.90;;;2.60;84.50;;;;;;5075843;28;20205;-60
2022/03/02 05:45:11;;;;;;;16.13;13.10;;;2.60;84.60;;;;;;5075471;28;20202;-60
2022/03/02 05:47:39;;;;;;;21.27;14.50;;;2.70;84.70;;;;;;5075731;28;20205;-60
2022/03/02 05:50:08;;;;;;;19.25;14.38;;;2.60;84.60;;;;;;5075040;28;20703;-61
2022/03/02 05:52:36;;;;;;;18.65;14.60;;;2.60;84.60;;;;;;5075210;28;20201;-60
2022/03/02 05:55:04;;;;;;;24.15;15.85;;;2.60;84.80;;;;;;5075627;28;20208;-61
2022/03/02 05:57:31;;;;;;;18.48;13.50;;;2.60;85.10;;;;;;5075495;28;20227;-61
2022/03/02 05:59:58;;;;;;;24.77;14.68;;;2.60;85.30;;;;;;5075439;28;20205;-60
2022/03/02 06:02:26;;;;;;;19.33;13.55;;;2.60;85.50;;;;;;5075033;28;20205;-59
2022/03/02 06:04:53;;;;;;;20.33;14.38;;;2.60;85.50;;;;;;5075459;28;20287;-60
2022/03/02 06:07:20;;;;;;;23.25;15.45;;;2.70;85.90;;;;;;5075098;28;20197;-60
2022/03/02 06:09:50;;;;;;;21.88;13.93;;;2.60;86.10;;;;;;5075171;28;20657;-60
2022/03/02 06:12:18;;;;;;;20.40;13.60;;;2.70;86.30;;;;;;5074838;28;20200;-59
2022/03/02 06:14:46;;;;;;;21.00;15.43;;;2.70;86.10;;;;;;5075047;28;20236;-59
2022/03/02 06:17:13;;;;;;;18.52;13.95;;;2.70;86.20;;;;;;5075111;28;20215;-61
2022/03/02 06:19:41;;;;;;;21.98;14.68;;;2.70;86.20;;;;;;5074921;28;20201;-59
2022/03/02 06:22:10;;;;;;;17.40;14.05;;;2.70;86.40;;;;;;5074583;28;20315;-59
2022/03/02 06:24:37;;;;;;;19.35;15.07;;;2.70;86.70;;;;;;5075145;28;20207;-60
2022/03/02 06:27:06;;;;;;;18.90;14.30;;;2.70;86.60;;;;;;5074577;28;20208;-60
2022/03/02 06:29:33;;;;;;;19.40;13.68;;;2.70;86.70;;;;;;5074253;28;20320;-60
2022/03/02 06:32:02;;;;;;;24.30;14.10;;;2.70;86.70;;;;;;5073765;28;20221;-61
2022/03/02 06:34:29;;;;;;;17.92;14.27;;;2.70;87.10;;;;;;5074432;28;20201;-59
2022/03/02 06:36:56;;;;;;;16.83;12.82;;;2.70;87.20;;;;;;5074223;28;20201;-60
2022/03/02 06:39:24;;;;;;;21.35;16.00;;;2.80;87.20;;;;;;5074177;28;20284;-60
2022/03/02 06:42:04;;;;;;;21.60;15.98;;;2.80;87.10;;;;;;5074242;28;20224;-58
2022/03/02 06:44:40;;;;;;;17.13;13.57;;;2.90;87.00;;;;;;5074534;28;20188;-60
2022/03/02 06:47:10;;;;;;;19.58;14.35;;;2.90;86.90;;;;;;5074122;28;20185;-60
2022/03/02 06:49:56;;;;;;;19.10;14.02;;;3.00;86.70;;;;;;5073883;28;20685;-59
2022/03/02 06:52:28;;;;;;;22.40;14.02;;;3.00;86.40;;;;;;5074314;28;20189;-59
2022/03/02 06:54:59;;;;;;;17.42;13.45;;;3.00;86.10;;;;;;5074309;28;20185;-59
2022/03/02 06:57:29;;;;;;;16.55;13.88;;;3.10;85.80;;;;;;5074210;28;20633;-59
2022/03/02 07:00:01;;;;;;;18.35;14.23;;;3.10;85.50;;;;;;5074301;28;20203;-59
2022/03/02 07:02:38;;;;;;;18.20;13.63;;;3.10;85.10;;;;;;5073831;28;20185;-61
2022/03/02 07:05:06;;;;;;;15.77;12.70;;;3.10;84.90;;;;;;5073682;28;20197;-58
2022/03/02 07:07:35;;;;;;;22.27;14.65;;;3.10;84.80;;;;;;5073868;28;20201;-58
2022/03/02 07:10:02;;;;;;;24.55;13.63;;;3.10;84.70;;;;;;5073529;28;20252;-61
2022/03/02 07:12:30;;;;;;;20.05;14.40;;;3.00;84.70;;;;;;5073836;28;20669;-61
2022/03/02 07:14:59;;;;;;;22.10;14.15;;;3.00;85.00;;;;;;5073735;28;20205;-60
2022/03/02 07:17:28;;;;;;;24.02;14.85;;;3.00;85.00;;;;;;5073833;28;20201;-60
2022/03/02 07:19:56;;;;;;;19.80;13.27;;;2.90;85.20;;;;;;5074097;28;20560;-61
2022/03/02 07:22:25;;;;;;;21.90;15.18;;;3.00;85.60;;;;;;5073425;28;20208;-61
2022/03/02 07:24:55;;;;;;;19.75;13.85;;;3.00;85.80;;;;;;5073574;28;20201;-60
2022/03/02 07:27:23;;;;;;;16.25;13.60;;;3.10;85.50;;;;;;5073513;28;20209;-60
2022/03/02 07:29:52;;;;;;;21.52;15.02;;;3.10;84.90;;;;;;5073205;28;20227;-62
2022/03/02 07:32:23;;;;;;;21.33;13.63;;;3.10;84.90;;;;;;5073253;28;20200;-60
2022/03/02 07:34:56;;;;;;;20.08;13.93;;;3.10;84.30;;;;;;5073352;28;20182;-61
2022/03/02 07:37:24;;;;;;;21.92;12.55;;;3.10;84.20;;;;;;5073318;28;20258;-61
2022/03/02 07:39:51;;;;;;;22.35;15.02;;;3.20;84.50;;;;;;5072965;28;20197;-61
2022/03/02 07:42:19;;;;;;;22.33;13.75;;;3.20;84.40;;;;;;5073183;28;20273;-61
2022/03/02 07:44:47;;;;;;;23.33;13.38;;;3.20;84.10;;;;;;5072848;28;20233;-62
2022/03/02 07:47:15;;;;;;;21.02;14.82;;;3.30;84.10;;;;;;5073166;28;20216;-61
2022/03/02 07:49:43;;;;;;;17.02;14.57;;;3.40;84.10;;;;;;5072955;28;20224;-61
2022/03/02 07:52:11;;;;;;;19.52;13.68;;;3.40;83.70;;;;;;5073011;28;20225;-62
2022/03/02 07:54:40;;;;;;;23.67;14.63;;;3.50;83.40;;;;;;5073079;28;20236;-61
2022/03/02 07:57:09;;;;;;;24.45;13.70;;;3.60;83.00;;;;;;5073045;28;20207;-61
2022/03/02 07:59:38;;;;;;;20.70;14.18;;;3.70;82.50;;;;;;5073995;28;20355;-61
2022/03/02 08:02:08;;;;;;;19.65;14.98;;;3.80;81.80;;;;;;5072944;28;20228;-61
2022/03/02 08:04:36;;;;;;;21.90;15.18;;;3.90;81.20;;;;;;5072886;28;20205;-61
2022/03/02 08:07:06;;;;;;;22.02;13.80;;;4.10;81.00;;;;;;5073072;28;20201;-61
2022/03/02 08:09:34;;;;;;;19.23;14.05;;;4.20;80.40;;;;;;5072771;28;20225;-62
2022/03/02 08:12:03;;;;;;;24.45;15.35;;;4.20;79.80;;;;;;5072729;28;20227;-61
2022/03/02 08:14:30;;;;;;;21.85;13.93;;;4.30;79.50;;;;;;5072694;28;20205;-61
2022/03/02 08:16:57;;;;;;;21.20;13.48;;;4.40;79.30;;;;;;5073110;28;20201;-59
2022/03/02 08:19:26;;;;;;;17.67;14.15;;;4.60;78.90;;;;;;5073169;28;20201;-61
2022/03/02 08:21:58;;;;;;;19.60;14.60;;;4.60;78.20;;;;;;5072688;28;20655;-60
2022/03/02 08:24:27;;;;;;;16.02;12.20;;;4.70;77.80;;;;;;5072480;28;20211;-61
2022/03/02 08:26:58;;;;;;;16.33;13.23;;;4.80;77.50;;;;;;5072899;28;20201;-63
2022/03/02 08:29:27;;;;;;;21.60;14.65;;;4.90;76.80;;;;;;5072882;28;20209;-61
2022/03/02 08:31:58;;;;;;;19.13;13.73;;;4.90;75.90;;;;;;5072880;28;20224;-61
2022/03/02 08:34:26;;;;;;;17.33;13.77;;;5.10;75.60;;;;;;5072751;28;20259;-61
2022/03/02 08:36:54;;;;;;;18.48;14.10;;;5.20;75.00;;;;;;5072676;28;20209;-61
2022/03/02 08:39:21;;;;;;;19.23;13.25;;;5.40;73.70;;;;;;5072954;28;20200;-59
2022/03/02 08:41:50;;;;;;;23.60;13.60;;;5.50;72.60;;;;;;5073167;28;20224;-61
2022/03/02 08:44:17;;;;;;;18.67;12.75;;;5.70;71.60;;;;;;5073158;28;20201;-62
2022/03/02 08:46:46;;;;;;;17.10;13.50;;;5.80;70.20;;;;;;5073056;28;20584;-60
2022/03/02 08:49:13;;;;;;;15.55;13.25;;;6.10;69.00;;;;;;5072409;28;20275;-62
2022/03/02 08:51:41;;;;;;;20.48;12.32;;;6.20;67.30;;;;;;5073561;28;20244;-62
2022/03/02 08:54:11;;;;;;;20.42;13.52;;;6.40;66.00;;;;;;5073621;28;20622;-62
2022/03/02 08:56:40;;;;;;;14.30;12.80;;;6.50;64.50;;;;;;5077380;28;20211;-60
2022/03/02 08:59:12;;;;;;;16.75;12.18;;;6.70;63.20;;;;;;5077220;28;20201;-60
2022/03/02 09:01:41;;;;;;;16.63;12.07;;;6.80;62.10;;;;;;5076375;28;20704;-61
2022/03/02 09:04:13;;;;;;;14.77;12.23;;;6.90;60.70;;;;;;5076160;28;20761;-61
2022/03/02 09:06:41;;;;;;;19.60;14.18;;;7.00;59.80;;;;;;5076185;28;20185;-59
2022/03/02 09:09:08;;;;;;;17.20;13.77;;;7.10;58.90;;;;;;5077182;28;20229;-60
2022/03/02 09:11:35;;;;;;;20.63;13.45;;;7.10;58.30;;;;;;5076295;28;20225;-61
2022/03/02 09:14:03;;;;;;;16.58;13.45;;;7.10;57.80;;;;;;5076525;28;20208;-61
2022/03/02 09:16:31;;;;;;;15.75;12.50;;;7.10;57.20;;;;;;5076452;28;20209;-63
2022/03/02 09:18:59;;;;;;;16.10;11.95;;;7.10;57.10;;;;;;5076392;28;20199;-61
2022/03/02 09:21:27;;;;;;;17.88;12.32;;;7.10;55.80;;;;;;5076808;28;20582;-62
2022/03/02 09:23:55;;;;;;;16.10;11.98;;;7.20;54.90;;;;;;5077125;28;20201;-64
2022/03/02 09:26:23;;;;;;;15.63;12.70;;;7.20;54.40;;;;;;5076627;28;20201;-61
2022/03/02 09:28:52;;;;;;;14.68;11.90;;;7.40;53.90;;;;;;5076457;28;20205;-59
2022/03/02 09:31:22;;;;;;;15.95;13.07;;;7.50;53.10;;;;;;5076833;28;20220;-63
2022/03/02 09:33:55;;;;;;;23.48;13.07;;;7.60;52.50;;;;;;5076427;28;20239;-58
2022/03/02 09:36:24;;;;;;;16.67;11.82;;;7.60;52.00;;;;;;5076521;28;20193;-59
2022/03/02 09:38:53;;;;;;;15.57;12.90;;;7.60;51.50;;;;;;5076456;28;20200;-60
2022/03/02 09:41:31;;;;;;;19.95;13.25;;;7.50;51.20;;;;;;5076469;28;20576;-60
2022/03/02 09:44:00;;;;;;;16.95;13.30;;;7.40;51.00;;;;;;5076915;28;20629;-61
2022/03/02 09:46:34;;;;;;;14.27;12.40;;;7.30;50.90;;;;;;5076594;28;20208;-61
2022/03/02 09:49:06;;;;;;;17.30;13.55;;;7.40;50.80;;;;;;5076669;28;20240;-59
2022/03/02 09:51:35;;;;;;;16.50;12.38;;;7.40;50.60;;;;;;5076858;28;20249;-58
2022/03/02 09:54:04;;;;;;;17.10;12.80;;;7.30;50.10;;;;;;5076079;28;20307;-60
2022/03/02 09:56:35;;;;;;;16.73;13.27;;;7.20;50.50;;;;;;5076350;28;20209;-59
2022/03/02 09:59:04;;;;;;;18.98;13.55;;;7.10;49.90;;;;;;5076474;28;20192;-59
2022/03/02 10:01:34;;;;;;;16.63;12.93;;;7.00;49.90;;;;;;5076594;28;20228;-60
2022/03/02 10:04:17;;;;;;;19.27;13.00;;;6.90;50.00;;;;;;5076202;28;20204;-60
2022/03/02 10:06:45;;;;;;;19.65;13.35;;;6.80;50.00;;;;;;5075832;28;20228;-58
2022/03/02 10:09:13;;;;;;;18.90;13.90;;;6.80;50.10;;;;;;5075503;28;20693;-58
2022/03/02 10:11:43;;;;;;;21.10;13.23;;;6.90;50.00;;;;;;5075576;28;20232;-58
2022/03/02 10:14:12;;;;;;;20.15;13.75;;;6.90;49.70;;;;;;5075124;28;20259;-61
2022/03/02 10:16:45;;;;;;;19.92;12.05;;;7.00;49.60;;;;;;5076086;28;20205;-58
2022/03/02 10:19:23;;;;;;;14.95;11.30;;;7.10;49.40;;;;;;5075254;28;20547;-60
2022/03/02 10:22:06;;;;;;;16.52;12.70;;;7.20;49.30;;;;;;5119606;22;20250;-62
2022/03/02 10:24:43;;;;;;;18.70;12.95;;;7.30;49.10;;;;;;5096870;28;20189;-61
2022/03/02 10:27:23;;;;;;;16.35;12.10;;;7.50;48.80;;;;;;5097830;28;20184;-61
2022/03/02 10:30:02;;;;;;;21.23;13.25;;;7.60;48.00;;;;;;5097168;28;20200;-62
2022/03/02 10:32:35;;;;;;;17.40;13.60;;;7.70;47.50;;;;;;5095580;28;20227;-63
2022/03/02 10:35:07;;;;;;;21.15;13.70;;;7.80;47.00;;;;;;5095355;28;20188;-61
2022/03/02 10:37:36;;;;;;;15.82;13.27;;;8.00;46.80;;;;;;5095316;28;20191;-62
2022/03/02 10:40:16;;;;;;;15.32;12.00;;;8.10;46.60;;;;;;5094619;28;20192;-64
2022/03/02 10:42:45;;;;;;;15.15;11.05;;;8.20;46.20;;;;;;5095392;28;20315;-63
2022/03/02 10:45:15;;;;;;;19.23;12.32;;;8.30;45.80;;;;;;5097018;28;20204;-61
2022/03/02 10:47:49;;;;;;;18.02;12.40;;;8.40;45.10;;;;;;5097801;28;20196;-60
2022/03/02 10:50:18;;;;;;;16.13;11.93;;;8.40;44.60;;;;;;5098501;28;20249;-62
2022/03/02 10:52:48;;;;;;;11.90;10.00;;;8.60;44.40;;;;;;5097183;28;20220;-63
2022/03/02 10:55:16;;;;;;;12.32;10.27;;;8.60;43.70;;;;;;5099834;28;20236;-62
2022/03/02 10:57:47;;;;;;;13.43;10.25;;;8.60;43.20;;;;;;5095995;28;20207;-62
2022/03/02 11:00:17;;;;;;;17.67;10.60;;;8.70;42.80;;;;;;5095468;28;20192;-62
2022/03/02 11:02:45;;;;;;;14.68;10.60;;;8.90;42.50;;;;;;5095078;28;20712;-62
2022/03/02 11:05:15;;;;;;;16.70;13.90;;;8.90;42.00;;;;;;5094895;28;20235;-63
2022/03/02 11:07:44;;;;;;;18.90;12.15;;;9.00;42.00;;;;;;5094810;28;20200;-63
2022/03/02 11:10:12;;;;;;;16.67;11.23;;;8.90;42.10;;;;;;5094415;28;20220;-62
2022/03/02 11:12:42;;;;;;;16.48;12.05;;;8.90;42.20;;;;;;5093974;28;20359;-63
2022/03/02 11:15:11;;;;;;;18.33;13.50;;;8.90;41.90;;;;;;5093967;28;20208;-63
2022/03/02 11:17:51;;;;;;;18.00;12.30;;;8.90;42.00;;;;;;5095633;28;20690;-62
2022/03/02 11:20:19;;;;;;;15.70;11.90;;;9.10;42.20;;;;;;5096566;28;20181;-62
2022/03/02 11:22:55;;;;;;;15.53;11.80;;;9.30;42.10;;;;;;5094836;28;20228;-63
2022/03/02 11:25:41;;;;;;;15.37;11.40;;;9.40;41.70;;;;;;5095250;28;20434;-62
2022/03/02 11:28:08;;;;;;;17.47;13.70;;;9.50;41.50;;;;;;5094563;28;20426;-61
2022/03/02 11:30:37;;;;;;;13.80;11.85;;;9.50;41.40;;;;;;5093892;28;20485;-61
2022/03/02 11:33:08;;;;;;;18.90;11.98;;;9.40;41.10;;;;;;5093704;28;20579;-60
2022/03/02 11:35:38;;;;;;;14.97;11.40;;;9.40;41.20;;;;;;5093313;28;20181;-60
2022/03/02 11:38:07;;;;;;;15.35;10.95;;;9.40;41.00;;;;;;5093491;28;20957;-60
2022/03/02 11:40:42;;;;;;;13.87;9.70;;;9.40;40.80;;;;;;5093382;28;20378;-62
2022/03/02 11:43:15;;;;;;;18.40;11.53;;;9.50;40.40;;;;;;5093598;28;20441;-61
2022/03/02 11:45:43;;;;;;;13.57;12.00;;;9.60;40.60;;;;;;5093672;28;20443;-60
2022/03/02 11:48:15;;;;;;;18.10;12.80;;;9.60;40.00;;;;;;5094010;28;20438;-61
2022/03/02 11:51:01;;;;;;;16.40;12.57;;;9.60;40.20;;;;;;5093382;28;20474;-61
2022/03/02 11:53:35;;;;;;;18.25;12.40;;;9.70;40.30;;;;;;5093408;28;20446;-60
2022/03/02 11:56:03;;;;;;;20.07;12.30;;;9.70;40.30;;;;;;5093107;28;20196;-61
2022/03/02 11:58:54;;;;;;;15.67;13.10;;;9.60;40.30;;;;;;5093088;28;20807;-61
2022/03/02 12:01:22;;;;;;;15.73;11.80;;;9.40;40.20;;;;;;5093212;28;20523;-60
2022/03/02 12:04:00;;;;;;;16.73;12.03;;;9.40;40.40;;;;;;5092852;28;20457;-62
2022/03/02 12:06:29;;;;;;;18.20;12.40;;;9.50;40.40;;;;;;5093247;28;20446;-62
2022/03/02 12:08:59;;;;;;;17.15;11.70;;;9.50;40.70;;;;;;5093011;28;20450;-61
2022/03/02 12:11:33;;;;;;;16.35;12.23;;;9.50;40.10;;;;;;5093587;28;20354;-63
2022/03/02 12:14:08;;;;;;;13.13;10.57;;;9.50;39.90;;;;;;5093691;28;20271;-62
2022/03/02 12:16:39;;;;;;;16.70;11.18;;;9.50;39.60;;;;;;5093747;28;20445;-61
2022/03/02 12:19:19;;;;;;;17.20;11.60;;;9.50;40.00;;;;;;5093425;28;20201;-62
2022/03/02 12:21:47;;;;;;;15.57;12.07;;;9.60;39.10;;;;;;5093173;28;21043;-63
2022/03/02 12:24:20;;;;;;;17.30;13.10;;;9.70;39.10;;;;;;5093846;28;20518;-62
2022/03/02 12:26:49;;;;;;;14.67;11.90;;;9.80;39.10;;;;;;5093443;28;20433;-60
2022/03/02 12:29:17;;;;;;;15.60;11.70;;;9.90;38.80;;;;;;5094155;28;20549;-63
2022/03/02 12:31:47;;;;;;;15.20;11.63;;;9.90;38.50;;;;;;5097200;28;20482;-62
2022/03/02 12:34:15;;;;;;;17.00;12.57;;;9.90;38.50;;;;;;5097471;28;20489;-63
2022/03/02 12:36:42;;;;;;;17.07;13.20;;;9.90;38.70;;;;;;5096859;28;20446;-62
2022/03/02 12:39:10;;;;;;;15.20;11.70;;;9.90;38.70;;;;;;5097110;28;20453;-63
2022/03/02 12:41:38;;;;;;;14.53;11.90;;;9.90;38.60;;;;;;5096937;28;20458;-62
2022/03/02 12:44:06;;;;;;;14.52;12.15;;;9.80;38.40;;;;;;5097474;28;20461;-61
2022/03/02 12:46:36;;;;;;;17.13;12.90;;;9.60;38.50;;;;;;5097318;28;20208;-62
2022/03/02 12:49:04;;;;;;;15.67;12.10;;;9.60;38.80;;;;;;5097009;28;20445;-62